sensor_id;sensor_type;location;lat;lon;timestamp;P1;durP1;ratioP1;P2;durP2;ratioP2
15126;SDS011;7664;52.008;4.748;2022-07-23T00:00:52;2.53;;;2.08;;
15126;SDS011;7664;52.008;4.748;2022-07-23T00:03:20;4.30;;;2.38;;
15126;SDS011;7664;52.008;4.748;2022-07-23T00:05:49;4.15;;;2.55;;
15126;SDS011;7664;52.008;4.748;2022-07-23T00:08:18;2.42;;;2.10;;
15126;SDS011;7664;52.008;4.748;2022-07-23T00:10:45;2.58;;;2.03;;
15126;SDS011;7664;52.008;4.748;2022-07-23T00:13:14;3.90;;;2.25;;
15126;SDS011;7664;52.008;4.748;2022-07-23T00:15:42;5.45;;;2.22;;
15126;SDS011;7664;52.008;4.748;2022-07-23T00:18:10;3.17;;;2.13;;
15126;SDS011;7664;52.008;4.748;2022-07-23T00:20:38;3.47;;;2.20;;
15126;SDS011;7664;52.008;4.748;2022-07-23T00:23:07;3.00;;;2.70;;
15126;SDS011;7664;52.008;4.748;2022-07-23T00:25:35;3.80;;;2.08;;
15126;SDS011;7664;52.008;4.748;2022-07-23T00:28:03;2.63;;;1.80;;
15126;SDS011;7664;52.008;4.748;2022-07-23T00:30:32;3.03;;;2.00;;
15126;SDS011;7664;52.008;4.748;2022-07-23T00:33:01;4.57;;;3.08;;
15126;SDS011;7664;52.008;4.748;2022-07-23T00:35:32;3.83;;;2.25;;
15126;SDS011;7664;52.008;4.748;2022-07-23T00:38:03;3.35;;;2.72;;
15126;SDS011;7664;52.008;4.748;2022-07-23T00:40:33;4.35;;;2.70;;
15126;SDS011;7664;52.008;4.748;2022-07-23T00:43:02;3.63;;;2.58;;
15126;SDS011;7664;52.008;4.748;2022-07-23T00:45:30;3.45;;;2.40;;
15126;SDS011;7664;52.008;4.748;2022-07-23T00:47:58;3.22;;;2.55;;
15126;SDS011;7664;52.008;4.748;2022-07-23T00:50:27;3.70;;;2.35;;
15126;SDS011;7664;52.008;4.748;2022-07-23T00:52:55;2.97;;;2.10;;
15126;SDS011;7664;52.008;4.748;2022-07-23T00:55:24;3.13;;;2.10;;
15126;SDS011;7664;52.008;4.748;2022-07-23T00:57:53;2.92;;;2.13;;
15126;SDS011;7664;52.008;4.748;2022-07-23T01:00:22;3.55;;;2.53;;
15126;SDS011;7664;52.008;4.748;2022-07-23T01:02:50;3.25;;;2.42;;
15126;SDS011;7664;52.008;4.748;2022-07-23T01:05:18;4.32;;;2.63;;
15126;SDS011;7664;52.008;4.748;2022-07-23T01:07:48;3.75;;;2.58;;
15126;SDS011;7664;52.008;4.748;2022-07-23T01:10:21;5.32;;;2.47;;
15126;SDS011;7664;52.008;4.748;2022-07-23T01:13:01;4.80;;;2.60;;
15126;SDS011;7664;52.008;4.748;2022-07-23T01:15:30;5.85;;;2.55;;
15126;SDS011;7664;52.008;4.748;2022-07-23T01:17:59;3.15;;;2.42;;
15126;SDS011;7664;52.008;4.748;2022-07-23T01:20:27;4.70;;;2.97;;
15126;SDS011;7664;52.008;4.748;2022-07-23T01:22:57;3.10;;;2.55;;
15126;SDS011;7664;52.008;4.748;2022-07-23T01:25:25;3.35;;;2.70;;
15126;SDS011;7664;52.008;4.748;2022-07-23T01:27:53;3.65;;;2.60;;
15126;SDS011;7664;52.008;4.748;2022-07-23T01:30:21;3.28;;;2.30;;
15126;SDS011;7664;52.008;4.748;2022-07-23T01:32:49;3.58;;;2.40;;
15126;SDS011;7664;52.008;4.748;2022-07-23T01:35:17;4.07;;;2.65;;
15126;SDS011;7664;52.008;4.748;2022-07-23T01:37:45;3.75;;;2.45;;
15126;SDS011;7664;52.008;4.748;2022-07-23T01:40:14;4.07;;;2.45;;
15126;SDS011;7664;52.008;4.748;2022-07-23T01:42:43;4.03;;;2.38;;
15126;SDS011;7664;52.008;4.748;2022-07-23T01:45:12;5.47;;;2.30;;
15126;SDS011;7664;52.008;4.748;2022-07-23T01:47:40;3.95;;;2.83;;
15126;SDS011;7664;52.008;4.748;2022-07-23T01:50:09;2.60;;;2.40;;
15126;SDS011;7664;52.008;4.748;2022-07-23T01:52:36;4.32;;;2.47;;
15126;SDS011;7664;52.008;4.748;2022-07-23T01:55:05;3.85;;;2.80;;
15126;SDS011;7664;52.008;4.748;2022-07-23T01:57:35;4.40;;;3.20;;
15126;SDS011;7664;52.008;4.748;2022-07-23T02:00:04;4.40;;;2.58;;
15126;SDS011;7664;52.008;4.748;2022-07-23T02:02:32;4.05;;;2.60;;
15126;SDS011;7664;52.008;4.748;2022-07-23T02:05:00;3.88;;;2.70;;
15126;SDS011;7664;52.008;4.748;2022-07-23T02:07:28;4.25;;;2.72;;
15126;SDS011;7664;52.008;4.748;2022-07-23T02:09:58;4.35;;;2.50;;
15126;SDS011;7664;52.008;4.748;2022-07-23T02:12:26;5.00;;;2.55;;
15126;SDS011;7664;52.008;4.748;2022-07-23T02:14:55;7.53;;;3.42;;
15126;SDS011;7664;52.008;4.748;2022-07-23T02:17:24;3.53;;;2.88;;
15126;SDS011;7664;52.008;4.748;2022-07-23T02:19:52;4.28;;;2.53;;
15126;SDS011;7664;52.008;4.748;2022-07-23T02:22:20;3.75;;;2.72;;
15126;SDS011;7664;52.008;4.748;2022-07-23T02:24:47;3.40;;;2.30;;
15126;SDS011;7664;52.008;4.748;2022-07-23T02:27:16;2.83;;;1.88;;
15126;SDS011;7664;52.008;4.748;2022-07-23T02:29:44;2.97;;;2.03;;
15126;SDS011;7664;52.008;4.748;2022-07-23T02:32:13;4.95;;;2.30;;
15126;SDS011;7664;52.008;4.748;2022-07-23T02:34:41;5.05;;;2.40;;
15126;SDS011;7664;52.008;4.748;2022-07-23T02:37:09;4.40;;;2.50;;
15126;SDS011;7664;52.008;4.748;2022-07-23T02:39:36;3.40;;;2.78;;
15126;SDS011;7664;52.008;4.748;2022-07-23T02:42:05;4.90;;;2.20;;
15126;SDS011;7664;52.008;4.748;2022-07-23T02:44:33;4.75;;;2.65;;
15126;SDS011;7664;52.008;4.748;2022-07-23T02:47:01;3.15;;;2.33;;
15126;SDS011;7664;52.008;4.748;2022-07-23T02:49:31;2.45;;;1.83;;
15126;SDS011;7664;52.008;4.748;2022-07-23T02:51:59;3.33;;;2.10;;
15126;SDS011;7664;52.008;4.748;2022-07-23T02:54:27;3.70;;;2.40;;
15126;SDS011;7664;52.008;4.748;2022-07-23T02:56:54;3.53;;;2.30;;
15126;SDS011;7664;52.008;4.748;2022-07-23T02:59:22;3.95;;;2.65;;
15126;SDS011;7664;52.008;4.748;2022-07-23T03:01:50;2.75;;;2.15;;
15126;SDS011;7664;52.008;4.748;2022-07-23T03:04:18;3.75;;;2.22;;
15126;SDS011;7664;52.008;4.748;2022-07-23T03:06:47;4.30;;;2.08;;
15126;SDS011;7664;52.008;4.748;2022-07-23T03:09:15;4.13;;;1.90;;
15126;SDS011;7664;52.008;4.748;2022-07-23T03:11:43;1.95;;;1.70;;
15126;SDS011;7664;52.008;4.748;2022-07-23T03:14:11;3.08;;;1.90;;
15126;SDS011;7664;52.008;4.748;2022-07-23T03:16:40;2.53;;;1.65;;
15126;SDS011;7664;52.008;4.748;2022-07-23T03:19:08;2.50;;;1.73;;
15126;SDS011;7664;52.008;4.748;2022-07-23T03:21:36;2.10;;;1.60;;
15126;SDS011;7664;52.008;4.748;2022-07-23T03:24:08;2.67;;;1.55;;
15126;SDS011;7664;52.008;4.748;2022-07-23T03:26:36;2.15;;;1.70;;
15126;SDS011;7664;52.008;4.748;2022-07-23T03:29:04;3.15;;;1.63;;
15126;SDS011;7664;52.008;4.748;2022-07-23T03:31:32;2.15;;;1.77;;
15126;SDS011;7664;52.008;4.748;2022-07-23T03:34:00;2.88;;;2.10;;
15126;SDS011;7664;52.008;4.748;2022-07-23T03:36:29;4.32;;;1.88;;
15126;SDS011;7664;52.008;4.748;2022-07-23T03:38:56;2.97;;;1.80;;
15126;SDS011;7664;52.008;4.748;2022-07-23T03:41:28;2.75;;;1.85;;
15126;SDS011;7664;52.008;4.748;2022-07-23T03:43:56;4.15;;;2.45;;
15126;SDS011;7664;52.008;4.748;2022-07-23T03:46:24;4.30;;;3.00;;
15126;SDS011;7664;52.008;4.748;2022-07-23T03:48:52;3.35;;;2.58;;
15126;SDS011;7664;52.008;4.748;2022-07-23T03:51:24;4.88;;;2.53;;
15126;SDS011;7664;52.008;4.748;2022-07-23T03:53:52;3.67;;;2.75;;
15126;SDS011;7664;52.008;4.748;2022-07-23T03:56:21;5.30;;;2.60;;
15126;SDS011;7664;52.008;4.748;2022-07-23T03:58:50;4.55;;;2.95;;
15126;SDS011;7664;52.008;4.748;2022-07-23T04:01:19;5.13;;;3.47;;
15126;SDS011;7664;52.008;4.748;2022-07-23T04:03:46;3.42;;;2.95;;
15126;SDS011;7664;52.008;4.748;2022-07-23T04:06:14;3.95;;;3.15;;
15126;SDS011;7664;52.008;4.748;2022-07-23T04:08:42;6.20;;;3.35;;
15126;SDS011;7664;52.008;4.748;2022-07-23T04:11:10;3.83;;;2.80;;
15126;SDS011;7664;52.008;4.748;2022-07-23T04:13:38;5.10;;;3.00;;
15126;SDS011;7664;52.008;4.748;2022-07-23T04:16:08;5.50;;;3.17;;
15126;SDS011;7664;52.008;4.748;2022-07-23T04:18:36;4.47;;;3.17;;
15126;SDS011;7664;52.008;4.748;2022-07-23T04:21:05;4.45;;;2.80;;
15126;SDS011;7664;52.008;4.748;2022-07-23T04:23:33;5.15;;;2.88;;
15126;SDS011;7664;52.008;4.748;2022-07-23T04:26:01;4.05;;;2.50;;
15126;SDS011;7664;52.008;4.748;2022-07-23T04:28:28;3.35;;;2.60;;
15126;SDS011;7664;52.008;4.748;2022-07-23T04:30:56;2.92;;;2.53;;
15126;SDS011;7664;52.008;4.748;2022-07-23T04:33:27;4.57;;;2.78;;
15126;SDS011;7664;52.008;4.748;2022-07-23T04:35:54;3.47;;;2.90;;
15126;SDS011;7664;52.008;4.748;2022-07-23T04:38:22;3.13;;;2.30;;
15126;SDS011;7664;52.008;4.748;2022-07-23T04:40:50;3.88;;;2.47;;
15126;SDS011;7664;52.008;4.748;2022-07-23T04:43:18;4.97;;;2.05;;
15126;SDS011;7664;52.008;4.748;2022-07-23T04:45:46;4.15;;;2.90;;
15126;SDS011;7664;52.008;4.748;2022-07-23T04:48:14;4.45;;;2.08;;
15126;SDS011;7664;52.008;4.748;2022-07-23T04:50:44;4.47;;;2.40;;
15126;SDS011;7664;52.008;4.748;2022-07-23T04:53:11;2.28;;;1.92;;
15126;SDS011;7664;52.008;4.748;2022-07-23T04:55:39;3.33;;;2.08;;
15126;SDS011;7664;52.008;4.748;2022-07-23T04:58:07;3.22;;;2.20;;
15126;SDS011;7664;52.008;4.748;2022-07-23T05:00:36;3.65;;;2.00;;
15126;SDS011;7664;52.008;4.748;2022-07-23T05:03:04;3.33;;;2.35;;
15126;SDS011;7664;52.008;4.748;2022-07-23T05:05:31;5.10;;;2.03;;
15126;SDS011;7664;52.008;4.748;2022-07-23T05:08:01;3.85;;;2.20;;
15126;SDS011;7664;52.008;4.748;2022-07-23T05:10:28;2.20;;;2.00;;
15126;SDS011;7664;52.008;4.748;2022-07-23T05:12:56;3.80;;;1.80;;
15126;SDS011;7664;52.008;4.748;2022-07-23T05:15:24;3.97;;;2.08;;
15126;SDS011;7664;52.008;4.748;2022-07-23T05:17:52;2.78;;;1.88;;
15126;SDS011;7664;52.008;4.748;2022-07-23T05:20:20;4.22;;;1.70;;
15126;SDS011;7664;52.008;4.748;2022-07-23T05:22:48;1.65;;;1.30;;
15126;SDS011;7664;52.008;4.748;2022-07-23T05:25:17;1.77;;;1.25;;
15126;SDS011;7664;52.008;4.748;2022-07-23T05:27:45;2.85;;;1.10;;
15126;SDS011;7664;52.008;4.748;2022-07-23T05:30:13;2.65;;;1.35;;
15126;SDS011;7664;52.008;4.748;2022-07-23T05:32:41;4.03;;;1.20;;
15126;SDS011;7664;52.008;4.748;2022-07-23T05:35:09;2.15;;;1.20;;
15126;SDS011;7664;52.008;4.748;2022-07-23T05:37:37;1.17;;;1.00;;
15126;SDS011;7664;52.008;4.748;2022-07-23T05:40:06;1.98;;;1.08;;
15126;SDS011;7664;52.008;4.748;2022-07-23T05:42:37;1.27;;;1.00;;
15126;SDS011;7664;52.008;4.748;2022-07-23T05:45:08;1.98;;;1.08;;
15126;SDS011;7664;52.008;4.748;2022-07-23T05:47:40;1.10;;;1.00;;
15126;SDS011;7664;52.008;4.748;2022-07-23T05:50:10;0.82;;;0.80;;
15126;SDS011;7664;52.008;4.748;2022-07-23T05:52:39;2.75;;;0.90;;
15126;SDS011;7664;52.008;4.748;2022-07-23T05:55:08;1.65;;;0.70;;
15126;SDS011;7664;52.008;4.748;2022-07-23T05:57:38;1.65;;;0.70;;
15126;SDS011;7664;52.008;4.748;2022-07-23T06:00:07;1.10;;;0.60;;
15126;SDS011;7664;52.008;4.748;2022-07-23T06:02:37;0.98;;;0.90;;
15126;SDS011;7664;52.008;4.748;2022-07-23T06:05:06;0.63;;;0.50;;
15126;SDS011;7664;52.008;4.748;2022-07-23T06:07:35;1.30;;;0.70;;
15126;SDS011;7664;52.008;4.748;2022-07-23T06:10:03;2.15;;;0.80;;
15126;SDS011;7664;52.008;4.748;2022-07-23T06:12:32;3.10;;;1.27;;
15126;SDS011;7664;52.008;4.748;2022-07-23T06:15:02;1.30;;;0.75;;
15126;SDS011;7664;52.008;4.748;2022-07-23T06:17:36;1.05;;;0.60;;
15126;SDS011;7664;52.008;4.748;2022-07-23T06:20:06;3.75;;;0.82;;
15126;SDS011;7664;52.008;4.748;2022-07-23T06:22:35;1.52;;;0.90;;
15126;SDS011;7664;52.008;4.748;2022-07-23T06:25:03;2.08;;;1.02;;
15126;SDS011;7664;52.008;4.748;2022-07-23T06:27:44;0.88;;;0.55;;
15126;SDS011;7664;52.008;4.748;2022-07-23T06:30:14;1.90;;;0.60;;
15126;SDS011;7664;52.008;4.748;2022-07-23T06:32:44;1.65;;;0.55;;
15126;SDS011;7664;52.008;4.748;2022-07-23T06:35:12;2.25;;;0.73;;
15126;SDS011;7664;52.008;4.748;2022-07-23T06:37:40;2.78;;;0.65;;
15126;SDS011;7664;52.008;4.748;2022-07-23T06:40:08;0.75;;;0.40;;
15126;SDS011;7664;52.008;4.748;2022-07-23T06:42:37;4.35;;;0.95;;
15126;SDS011;7664;52.008;4.748;2022-07-23T06:45:05;2.45;;;0.70;;
15126;SDS011;7664;52.008;4.748;2022-07-23T06:47:35;1.23;;;0.60;;
15126;SDS011;7664;52.008;4.748;2022-07-23T06:50:04;2.95;;;0.82;;
15126;SDS011;7664;52.008;4.748;2022-07-23T06:52:32;1.80;;;0.77;;
15126;SDS011;7664;52.008;4.748;2022-07-23T06:55:07;1.40;;;0.60;;
15126;SDS011;7664;52.008;4.748;2022-07-23T06:57:36;2.22;;;0.65;;
15126;SDS011;7664;52.008;4.748;2022-07-23T07:00:09;0.82;;;0.57;;
15126;SDS011;7664;52.008;4.748;2022-07-23T07:02:39;1.52;;;0.63;;
15126;SDS011;7664;52.008;4.748;2022-07-23T07:05:07;1.48;;;0.63;;
15126;SDS011;7664;52.008;4.748;2022-07-23T07:07:36;2.90;;;0.70;;
15126;SDS011;7664;52.008;4.748;2022-07-23T07:10:04;0.60;;;0.60;;
15126;SDS011;7664;52.008;4.748;2022-07-23T07:12:40;0.55;;;0.40;;
15126;SDS011;7664;52.008;4.748;2022-07-23T07:15:09;0.95;;;0.63;;
15126;SDS011;7664;52.008;4.748;2022-07-23T07:17:37;2.65;;;0.75;;
15126;SDS011;7664;52.008;4.748;2022-07-23T07:20:10;1.17;;;0.63;;
15126;SDS011;7664;52.008;4.748;2022-07-23T07:22:38;1.25;;;0.70;;
15126;SDS011;7664;52.008;4.748;2022-07-23T07:25:06;2.00;;;0.77;;
15126;SDS011;7664;52.008;4.748;2022-07-23T07:27:35;2.55;;;1.63;;
15126;SDS011;7664;52.008;4.748;2022-07-23T07:30:04;1.67;;;0.90;;
15126;SDS011;7664;52.008;4.748;2022-07-23T07:32:33;0.95;;;0.65;;
15126;SDS011;7664;52.008;4.748;2022-07-23T07:35:24;1.00;;;0.90;;
15126;SDS011;7664;52.008;4.748;2022-07-23T07:37:52;2.10;;;1.20;;
15126;SDS011;7664;52.008;4.748;2022-07-23T07:40:21;2.47;;;0.60;;
15126;SDS011;7664;52.008;4.748;2022-07-23T07:42:50;1.88;;;0.70;;
15126;SDS011;7664;52.008;4.748;2022-07-23T07:45:20;0.85;;;0.60;;
15126;SDS011;7664;52.008;4.748;2022-07-23T07:47:49;1.50;;;0.75;;
15126;SDS011;7664;52.008;4.748;2022-07-23T07:50:17;2.00;;;0.98;;
15126;SDS011;7664;52.008;4.748;2022-07-23T07:52:48;3.05;;;1.00;;
15126;SDS011;7664;52.008;4.748;2022-07-23T07:55:16;1.75;;;0.70;;
15126;SDS011;7664;52.008;4.748;2022-07-23T07:57:45;1.23;;;0.77;;
15126;SDS011;7664;52.008;4.748;2022-07-23T08:00:14;2.10;;;0.77;;
15126;SDS011;7664;52.008;4.748;2022-07-23T08:02:43;1.33;;;0.70;;
15126;SDS011;7664;52.008;4.748;2022-07-23T08:05:12;1.05;;;0.52;;
15126;SDS011;7664;52.008;4.748;2022-07-23T08:07:41;2.10;;;0.82;;
15126;SDS011;7664;52.008;4.748;2022-07-23T08:10:10;1.80;;;0.80;;
15126;SDS011;7664;52.008;4.748;2022-07-23T08:12:39;1.23;;;0.80;;
15126;SDS011;7664;52.008;4.748;2022-07-23T08:15:08;1.67;;;0.80;;
15126;SDS011;7664;52.008;4.748;2022-07-23T08:17:39;2.38;;;0.70;;
15126;SDS011;7664;52.008;4.748;2022-07-23T08:20:08;2.22;;;1.05;;
15126;SDS011;7664;52.008;4.748;2022-07-23T08:22:49;3.17;;;1.30;;
15126;SDS011;7664;52.008;4.748;2022-07-23T08:25:22;1.80;;;1.05;;
15126;SDS011;7664;52.008;4.748;2022-07-23T08:27:51;0.90;;;0.60;;
15126;SDS011;7664;52.008;4.748;2022-07-23T08:30:20;0.80;;;0.70;;
15126;SDS011;7664;52.008;4.748;2022-07-23T08:32:48;2.70;;;0.80;;
15126;SDS011;7664;52.008;4.748;2022-07-23T08:35:20;1.60;;;1.10;;
15126;SDS011;7664;52.008;4.748;2022-07-23T08:37:49;1.13;;;0.77;;
15126;SDS011;7664;52.008;4.748;2022-07-23T08:40:17;0.98;;;0.60;;
15126;SDS011;7664;52.008;4.748;2022-07-23T08:42:49;1.10;;;0.63;;
15126;SDS011;7664;52.008;4.748;2022-07-23T08:45:18;1.98;;;0.68;;
15126;SDS011;7664;52.008;4.748;2022-07-23T08:47:48;1.42;;;0.80;;
15126;SDS011;7664;52.008;4.748;2022-07-23T08:50:18;1.60;;;1.00;;
15126;SDS011;7664;52.008;4.748;2022-07-23T08:52:47;1.50;;;0.60;;
15126;SDS011;7664;52.008;4.748;2022-07-23T08:55:16;1.85;;;0.93;;
15126;SDS011;7664;52.008;4.748;2022-07-23T08:57:44;2.42;;;1.10;;
15126;SDS011;7664;52.008;4.748;2022-07-23T09:00:15;2.70;;;0.98;;
15126;SDS011;7664;52.008;4.748;2022-07-23T09:02:45;1.73;;;0.50;;
15126;SDS011;7664;52.008;4.748;2022-07-23T09:05:14;0.80;;;0.60;;
15126;SDS011;7664;52.008;4.748;2022-07-23T09:08:03;1.10;;;0.70;;
15126;SDS011;7664;52.008;4.748;2022-07-23T09:10:45;0.95;;;0.60;;
15126;SDS011;7664;52.008;4.748;2022-07-23T09:13:25;1.90;;;0.65;;
15126;SDS011;7664;52.008;4.748;2022-07-23T09:16:01;1.67;;;0.80;;
15126;SDS011;7664;52.008;4.748;2022-07-23T09:18:31;2.40;;;0.50;;
15126;SDS011;7664;52.008;4.748;2022-07-23T09:21:05;2.00;;;0.75;;
15126;SDS011;7664;52.008;4.748;2022-07-23T09:23:36;1.02;;;0.73;;
15126;SDS011;7664;52.008;4.748;2022-07-23T09:26:16;0.95;;;0.63;;
15126;SDS011;7664;52.008;4.748;2022-07-23T09:28:51;0.50;;;0.50;;
15126;SDS011;7664;52.008;4.748;2022-07-23T09:31:22;0.85;;;0.47;;
15126;SDS011;7664;52.008;4.748;2022-07-23T09:33:50;0.63;;;0.50;;
15126;SDS011;7664;52.008;4.748;2022-07-23T09:36:28;2.70;;;1.00;;
15126;SDS011;7664;52.008;4.748;2022-07-23T09:38:56;1.58;;;0.90;;
15126;SDS011;7664;52.008;4.748;2022-07-23T09:41:24;1.83;;;0.75;;
15126;SDS011;7664;52.008;4.748;2022-07-23T09:44:06;0.70;;;0.50;;
15126;SDS011;7664;52.008;4.748;2022-07-23T09:46:38;1.38;;;0.80;;
15126;SDS011;7664;52.008;4.748;2022-07-23T09:49:11;1.23;;;0.70;;
15126;SDS011;7664;52.008;4.748;2022-07-23T09:51:43;1.75;;;1.23;;
15126;SDS011;7664;52.008;4.748;2022-07-23T09:54:23;1.02;;;0.70;;
15126;SDS011;7664;52.008;4.748;2022-07-23T09:56:58;1.73;;;0.80;;
15126;SDS011;7664;52.008;4.748;2022-07-23T09:59:29;2.38;;;0.60;;
15126;SDS011;7664;52.008;4.748;2022-07-23T10:01:59;3.20;;;0.88;;
15126;SDS011;7664;52.008;4.748;2022-07-23T10:04:29;5.22;;;0.90;;
15126;SDS011;7664;52.008;4.748;2022-07-23T10:06:58;1.17;;;0.70;;
15126;SDS011;7664;52.008;4.748;2022-07-23T10:09:27;0.45;;;0.45;;
15126;SDS011;7664;52.008;4.748;2022-07-23T10:11:57;1.65;;;0.60;;
15126;SDS011;7664;52.008;4.748;2022-07-23T10:14:33;0.85;;;0.70;;
15126;SDS011;7664;52.008;4.748;2022-07-23T10:17:00;1.10;;;1.00;;
15126;SDS011;7664;52.008;4.748;2022-07-23T10:19:30;1.92;;;0.70;;
15126;SDS011;7664;52.008;4.748;2022-07-23T10:21:58;2.67;;;0.70;;
15126;SDS011;7664;52.008;4.748;2022-07-23T10:24:36;2.00;;;0.63;;
15126;SDS011;7664;52.008;4.748;2022-07-23T10:27:19;1.05;;;0.80;;
15126;SDS011;7664;52.008;4.748;2022-07-23T10:30:10;0.68;;;0.60;;
15126;SDS011;7664;52.008;4.748;2022-07-23T10:32:44;1.10;;;1.00;;
15126;SDS011;7664;52.008;4.748;2022-07-23T10:35:18;1.48;;;0.68;;
15126;SDS011;7664;52.008;4.748;2022-07-23T10:37:54;1.67;;;1.00;;
15126;SDS011;7664;52.008;4.748;2022-07-23T10:40:28;2.33;;;0.80;;
15126;SDS011;7664;52.008;4.748;2022-07-23T10:42:59;0.70;;;0.63;;
15126;SDS011;7664;52.008;4.748;2022-07-23T10:45:31;1.40;;;0.60;;
15126;SDS011;7664;52.008;4.748;2022-07-23T10:50:45;1.00;;;0.90;;
15126;SDS011;7664;52.008;4.748;2022-07-23T10:59:30;3.90;;;1.33;;
15126;SDS011;7664;52.008;4.748;2022-07-23T11:04:52;1.60;;;0.70;;
15126;SDS011;7664;52.008;4.748;2022-07-23T11:07:20;2.72;;;0.98;;
15126;SDS011;7664;52.008;4.748;2022-07-23T11:09:48;2.05;;;1.17;;
15126;SDS011;7664;52.008;4.748;2022-07-23T11:12:33;1.02;;;0.73;;
15126;SDS011;7664;52.008;4.748;2022-07-23T11:15:06;4.55;;;0.98;;
15126;SDS011;7664;52.008;4.748;2022-07-23T11:17:37;2.78;;;1.25;;
15126;SDS011;7664;52.008;4.748;2022-07-23T11:20:12;2.30;;;1.17;;
15126;SDS011;7664;52.008;4.748;2022-07-23T11:22:47;2.17;;;1.23;;
15126;SDS011;7664;52.008;4.748;2022-07-23T11:25:31;1.60;;;1.48;;
15126;SDS011;7664;52.008;4.748;2022-07-23T11:28:10;2.25;;;1.17;;
15126;SDS011;7664;52.008;4.748;2022-07-23T11:30:42;2.38;;;1.20;;
15126;SDS011;7664;52.008;4.748;2022-07-23T11:33:19;2.58;;;1.38;;
15126;SDS011;7664;52.008;4.748;2022-07-23T11:35:49;2.03;;;1.05;;
15126;SDS011;7664;52.008;4.748;2022-07-23T11:38:29;3.33;;;1.33;;
15126;SDS011;7664;52.008;4.748;2022-07-23T11:40:59;2.47;;;1.20;;
15126;SDS011;7664;52.008;4.748;2022-07-23T11:43:27;1.65;;;0.95;;
15126;SDS011;7664;52.008;4.748;2022-07-23T11:45:57;1.60;;;1.35;;
15126;SDS011;7664;52.008;4.748;2022-07-23T11:48:28;2.67;;;1.73;;
15126;SDS011;7664;52.008;4.748;2022-07-23T11:51:06;1.52;;;1.35;;
15126;SDS011;7664;52.008;4.748;2022-07-23T11:53:34;2.10;;;1.30;;
15126;SDS011;7664;52.008;4.748;2022-07-23T11:56:03;1.83;;;1.25;;
15126;SDS011;7664;52.008;4.748;2022-07-23T11:58:32;1.23;;;1.00;;
15126;SDS011;7664;52.008;4.748;2022-07-23T12:01:00;1.73;;;1.30;;
15126;SDS011;7664;52.008;4.748;2022-07-23T12:03:30;1.27;;;1.05;;
15126;SDS011;7664;52.008;4.748;2022-07-23T12:05:59;1.73;;;1.00;;
15126;SDS011;7664;52.008;4.748;2022-07-23T12:08:27;2.90;;;1.10;;
15126;SDS011;7664;52.008;4.748;2022-07-23T12:10:55;2.03;;;1.17;;
15126;SDS011;7664;52.008;4.748;2022-07-23T12:13:23;1.88;;;0.90;;
15126;SDS011;7664;52.008;4.748;2022-07-23T12:15:52;1.98;;;1.17;;
15126;SDS011;7664;52.008;4.748;2022-07-23T12:18:22;2.35;;;1.33;;
15126;SDS011;7664;52.008;4.748;2022-07-23T12:20:53;2.67;;;1.10;;
15126;SDS011;7664;52.008;4.748;2022-07-23T12:23:26;1.98;;;1.38;;
15126;SDS011;7664;52.008;4.748;2022-07-23T12:25:54;3.00;;;1.00;;
15126;SDS011;7664;52.008;4.748;2022-07-23T12:28:26;1.60;;;1.15;;
15126;SDS011;7664;52.008;4.748;2022-07-23T12:30:56;1.95;;;1.10;;
15126;SDS011;7664;52.008;4.748;2022-07-23T12:33:25;2.60;;;1.02;;
15126;SDS011;7664;52.008;4.748;2022-07-23T12:35:56;2.80;;;1.20;;
15126;SDS011;7664;52.008;4.748;2022-07-23T12:38:27;2.10;;;1.10;;
15126;SDS011;7664;52.008;4.748;2022-07-23T12:41:03;2.15;;;1.20;;
15126;SDS011;7664;52.008;4.748;2022-07-23T12:43:31;1.92;;;1.10;;
15126;SDS011;7664;52.008;4.748;2022-07-23T12:46:02;1.65;;;1.08;;
15126;SDS011;7664;52.008;4.748;2022-07-23T12:48:32;2.25;;;1.40;;
15126;SDS011;7664;52.008;4.748;2022-07-23T12:51:05;1.48;;;1.00;;
15126;SDS011;7664;52.008;4.748;2022-07-23T12:53:44;1.27;;;0.80;;
15126;SDS011;7664;52.008;4.748;2022-07-23T12:56:15;1.60;;;0.88;;
15126;SDS011;7664;52.008;4.748;2022-07-23T12:58:47;1.23;;;0.73;;
15126;SDS011;7664;52.008;4.748;2022-07-23T13:01:30;4.30;;;1.05;;
15126;SDS011;7664;52.008;4.748;2022-07-23T13:04:00;1.75;;;1.13;;
15126;SDS011;7664;52.008;4.748;2022-07-23T13:06:40;1.63;;;0.90;;
15126;SDS011;7664;52.008;4.748;2022-07-23T13:09:11;2.67;;;1.20;;
15126;SDS011;7664;52.008;4.748;2022-07-23T13:11:41;0.73;;;0.70;;
15126;SDS011;7664;52.008;4.748;2022-07-23T13:14:09;3.53;;;0.90;;
15126;SDS011;7664;52.008;4.748;2022-07-23T13:16:38;1.58;;;1.08;;
15126;SDS011;7664;52.008;4.748;2022-07-23T13:19:07;1.25;;;0.88;;
15126;SDS011;7664;52.008;4.748;2022-07-23T13:21:37;1.38;;;0.90;;
15126;SDS011;7664;52.008;4.748;2022-07-23T13:24:08;1.92;;;1.17;;
15126;SDS011;7664;52.008;4.748;2022-07-23T13:26:38;1.38;;;0.98;;
15126;SDS011;7664;52.008;4.748;2022-07-23T13:29:07;1.88;;;1.08;;
15126;SDS011;7664;52.008;4.748;2022-07-23T13:31:36;3.58;;;1.42;;
15126;SDS011;7664;52.008;4.748;2022-07-23T13:34:04;1.48;;;1.00;;
15126;SDS011;7664;52.008;4.748;2022-07-23T13:36:33;1.17;;;1.00;;
15126;SDS011;7664;52.008;4.748;2022-07-23T13:39:03;1.80;;;1.40;;
15126;SDS011;7664;52.008;4.748;2022-07-23T13:41:35;2.35;;;1.67;;
15126;SDS011;7664;52.008;4.748;2022-07-23T13:44:03;2.15;;;1.60;;
15126;SDS011;7664;52.008;4.748;2022-07-23T13:46:32;4.28;;;2.97;;
15126;SDS011;7664;52.008;4.748;2022-07-23T13:49:00;4.60;;;3.13;;
15126;SDS011;7664;52.008;4.748;2022-07-23T13:51:32;4.88;;;2.25;;
15126;SDS011;7664;52.008;4.748;2022-07-23T13:54:00;1.55;;;1.25;;
15126;SDS011;7664;52.008;4.748;2022-07-23T13:56:30;2.28;;;1.45;;
15126;SDS011;7664;52.008;4.748;2022-07-23T13:58:59;4.60;;;1.95;;
15126;SDS011;7664;52.008;4.748;2022-07-23T14:01:27;1.88;;;1.52;;
15126;SDS011;7664;52.008;4.748;2022-07-23T14:04:15;2.75;;;1.90;;
15126;SDS011;7664;52.008;4.748;2022-07-23T14:06:43;1.63;;;1.35;;
15126;SDS011;7664;52.008;4.748;2022-07-23T14:09:18;2.47;;;1.75;;
15126;SDS011;7664;52.008;4.748;2022-07-23T14:11:48;2.30;;;1.25;;
15126;SDS011;7664;52.008;4.748;2022-07-23T14:14:17;1.98;;;0.90;;
15126;SDS011;7664;52.008;4.748;2022-07-23T14:16:46;3.03;;;1.27;;
15126;SDS011;7664;52.008;4.748;2022-07-23T14:19:14;1.88;;;1.55;;
15126;SDS011;7664;52.008;4.748;2022-07-23T14:21:42;1.67;;;1.20;;
15126;SDS011;7664;52.008;4.748;2022-07-23T14:24:10;1.45;;;1.20;;
15126;SDS011;7664;52.008;4.748;2022-07-23T14:26:38;1.70;;;1.00;;
15126;SDS011;7664;52.008;4.748;2022-07-23T14:29:07;1.58;;;1.42;;
15126;SDS011;7664;52.008;4.748;2022-07-23T14:31:37;1.55;;;1.33;;
15126;SDS011;7664;52.008;4.748;2022-07-23T14:34:05;1.98;;;1.65;;
15126;SDS011;7664;52.008;4.748;2022-07-23T14:36:33;2.78;;;1.65;;
15126;SDS011;7664;52.008;4.748;2022-07-23T14:39:04;3.08;;;1.10;;
15126;SDS011;7664;52.008;4.748;2022-07-23T14:41:36;2.08;;;1.30;;
15126;SDS011;7664;52.008;4.748;2022-07-23T14:44:04;1.92;;;1.30;;
15126;SDS011;7664;52.008;4.748;2022-07-23T14:46:36;2.45;;;1.38;;
15126;SDS011;7664;52.008;4.748;2022-07-23T14:49:05;4.85;;;2.05;;
15126;SDS011;7664;52.008;4.748;2022-07-23T14:51:35;1.52;;;1.00;;
15126;SDS011;7664;52.008;4.748;2022-07-23T14:54:04;1.92;;;1.40;;
15126;SDS011;7664;52.008;4.748;2022-07-23T14:56:35;2.17;;;1.20;;
15126;SDS011;7664;52.008;4.748;2022-07-23T14:59:03;1.88;;;1.10;;
15126;SDS011;7664;52.008;4.748;2022-07-23T15:01:32;1.70;;;1.13;;
15126;SDS011;7664;52.008;4.748;2022-07-23T15:04:04;2.05;;;1.20;;
15126;SDS011;7664;52.008;4.748;2022-07-23T15:06:52;1.10;;;1.00;;
15126;SDS011;7664;52.008;4.748;2022-07-23T15:09:20;1.60;;;1.00;;
15126;SDS011;7664;52.008;4.748;2022-07-23T15:11:48;2.35;;;1.88;;
15126;SDS011;7664;52.008;4.748;2022-07-23T15:14:16;1.83;;;1.30;;
15126;SDS011;7664;52.008;4.748;2022-07-23T15:16:55;1.48;;;0.90;;
15126;SDS011;7664;52.008;4.748;2022-07-23T15:19:26;1.75;;;1.10;;
15126;SDS011;7664;52.008;4.748;2022-07-23T15:21:56;2.78;;;1.42;;
15126;SDS011;7664;52.008;4.748;2022-07-23T15:24:27;3.25;;;1.23;;
15126;SDS011;7664;52.008;4.748;2022-07-23T15:26:55;1.73;;;0.90;;
15126;SDS011;7664;52.008;4.748;2022-07-23T15:29:23;2.20;;;0.90;;